Grover Hill, OH (45849)

1:06 PM EST on December 20, 2014 (GMT -0500)
Dan Halter farm | Change Station
CLOSE
Current Station
Personal Weather Station
Location: Oakwood, OH
Elevation: 702 ft
Nearby Weather Stations

Elev 702 ft 41.11 °N, 84.40 °W | Updated 2 minutes ago

Mostly Cloudy
Mostly Cloudy
34.3 °F
Feels Like 34 °F
N
1.0
Wind Variable Wind from West
Gusts 4.0 mph

Today
High -- | Low -- °F
--% Chance of Precip.
Yesterday
High -- | Low -- °F
Precip. -- in
7:58 AM 5:12 PM
Waning Crescent, 2% visible
Pressure 30.30 in
Visibility 10.0 miles
Clouds Few 3000 ft
Windchill 34 °F
Dew Point 27 °F
Humidity 75%
Rainfall 0.00 in
Snow Depth Not available.
UV 2 out of 12
Pollen .10 out of 12
Air Quality Not available.
Flu Activity Not available.
METAR KDFI 201753Z AUTO VRB03KT 10SM FEW030 01/M06 A3027 RMK AO2 SLP259 T00061061 10006 21033 58012 TSNO

More Conditions Fewer Conditions

Pressure 30.30 in
Visibility 10.0 miles
Clouds Few 3000 ft
Windchill 34 °F
Dew Point 27 °F
Humidity 75%
Rainfall 0.00 in
Snow Depth Not available.
UV 2 out of 12
Pollen .10 out of 12
Air Quality Not available.
Flu Activity Not available.
METAR KDFI 201753Z AUTO VRB03KT 10SM FEW030 01/M06 A3027 RMK AO2 SLP259 T00061061 10006 21033 58012 TSNO

More Conditions Fewer Conditions

10-Day Weather Forecast

Almanac

Astronomy

Dec. 20, 2014 Rise Set
Actual Time
Civil Twilight
Nautical Twilight
Astronomical Twilight
Moon
Length of Visible Light
Length of Day
Tomorrow will be .
, % of the Moon is Illuminated

Today's Extremes

State Highs State Lows

Community

WunderPhotos

Upload Photos

1,779,231 photos uploaded!

WunderBlogs® & News

Nearby

Air Quality

  Air Quality AQ Index Pollutant
Not available.

Snow Depth

Station Depth Elevation

Earthquake Activity

City Distance Mag. Time & Date
Minimum magnitude displayed is 2.5.

Coastal Water Temperatures

Place Temperature

Nearby Weather Stations